Time;durP1;ratioP1;P1;durP2;ratioP2;P2;SDS_P1;SDS_P2;PMS_P1;PMS_P2;Temp;Humidity;BMP_temperature;BMP_pressure;BME280_temperature;BME280_humidity;BME280_pressure;Samples;Min_cycle;Max_cycle;Signal;HPM_P1;HPM_P2
2021/06/17 00:00:13;;;;;;;;;;;19.50;99.90;;;19.23;98.74;100272.03;5052321;28;20045;-65
2021/06/17 00:02:41;;;;;;;;;;;19.50;99.90;;;19.23;99.30;100256.38;5052696;28;19925;-66
2021/06/17 00:05:11;;;;;;;;;;;19.50;99.90;;;19.22;98.93;100252.06;5051498;28;19936;-64
2021/06/17 00:07:39;;;;;;;;;;;19.50;99.90;;;19.23;98.88;100255.59;5052557;28;19983;-63
2021/06/17 00:10:11;;;;;;;;;;;19.50;99.90;;;19.24;98.86;100260.69;5034547;28;19929;-63
2021/06/17 00:12:38;;;;;;;;;;;19.50;99.90;;;19.26;99.17;100249.38;5052514;28;19925;-64
2021/06/17 00:15:10;;;;;;;;;;;19.50;99.90;;;19.26;99.10;100250.19;5052263;28;19925;-63
2021/06/17 00:17:38;;;;;;;;;;;19.50;99.90;;;19.25;99.05;100240.38;5056511;28;19925;-65
2021/06/17 00:20:07;;;;;;;;;;;19.60;99.90;;;19.24;98.96;100238.00;5056052;28;19929;-63
2021/06/17 00:22:35;;;;;;;;;;;19.50;99.90;;;19.22;98.58;100232.88;5056448;28;19929;-63
2021/06/17 00:25:04;;;;;;;;;;;19.50;99.90;;;19.22;98.99;100226.59;5054225;28;19979;-63
2021/06/17 00:27:32;;;;;;;;;;;19.50;99.90;;;19.23;99.42;100239.16;5055081;28;19924;-64
2021/06/17 00:29:59;;;;;;;;;;;19.50;99.90;;;19.22;100.00;100230.13;5056100;28;20066;-64
2021/06/17 00:32:29;;;;;;;;;;;19.50;99.90;;;19.23;99.57;100226.25;5056075;28;19928;-64
2021/06/17 00:34:56;;;;;;;;;;;19.50;99.90;;;19.20;99.50;100218.75;5054879;28;19925;-64
2021/06/17 00:37:24;;;;;;;;;;;19.50;99.90;;;19.19;100.00;100219.88;5055950;28;20374;-65
2021/06/17 00:39:52;;;;;;;;;;;19.50;99.90;;;19.17;100.00;100215.94;5055861;28;19929;-65
2021/06/17 00:42:20;;;;;;;;;;;19.50;99.90;;;19.15;100.00;100208.03;5055910;28;19925;-64
2021/06/17 00:44:48;;;;;;;;;;;19.50;99.90;;;19.16;100.00;100209.66;5054883;28;19925;-64
2021/06/17 00:47:16;;;;;;;;;;;19.50;99.90;;;19.17;100.00;100199.47;5054540;28;19929;-64
2021/06/17 00:49:45;;;;;;;;;;;19.50;99.90;;;19.15;100.00;100194.34;5055591;28;19936;-64
2021/06/17 00:52:13;;;;;;;;;;;19.50;99.90;;;19.17;100.00;100192.06;5055974;28;19925;-64
2021/06/17 00:54:41;;;;;;;;;;;;;;;19.17;100.00;100188.53;5054709;28;19935;-64
2021/06/17 00:57:10;;;;;;;;;;;19.50;99.90;;;19.17;100.00;100183.03;5055580;28;19924;-64
2021/06/17 00:59:38;;;;;;;;;;;19.50;99.90;;;19.10;100.00;100183.69;5055358;28;19979;-64
2021/06/17 01:02:07;;;;;;;;;;;19.50;99.90;;;19.03;100.00;100183.53;5055641;28;19974;-64
2021/06/17 01:04:35;;;;;;;;;;;19.40;99.90;;;19.01;100.00;100174.91;5054466;28;20016;-64
2021/06/17 01:07:05;;;;;;;;;;;19.40;99.90;;;19.02;100.00;100171.00;5055478;28;19982;-64
2021/06/17 01:09:43;;;;;;;;;;;19.30;99.90;;;19.04;100.00;100166.75;5055401;28;20398;-64
2021/06/17 01:12:17;;;;;;;;;;;19.30;99.90;;;19.06;100.00;100163.63;5037940;28;19929;-65
2021/06/17 01:14:50;;;;;;;;;;;19.40;99.90;;;19.07;100.00;100163.28;5054334;28;20329;-65
2021/06/17 01:17:18;;;;;;;;;;;;;;;19.10;100.00;100167.25;5054335;28;19924;-65
2021/06/17 01:20:00;;;;;;;;;;;19.40;99.90;;;19.12;100.00;100164.16;5054932;28;19929;-66
2021/06/17 01:22:33;;;;;;;;;;;19.40;99.90;;;19.04;100.00;100174.16;5054930;28;19974;-64
2021/06/17 01:25:12;;;;;;;;;;;19.40;99.90;;;18.98;100.00;100161.91;5054088;28;20374;-64
2021/06/17 01:28:04;;;;;;;;;;;19.30;99.90;;;18.91;100.00;100159.81;5055099;28;19929;-63
2021/06/17 01:30:33;;;;;;;;;;;19.30;99.90;;;18.87;100.00;100158.19;5055077;28;19946;-64
2021/06/17 01:33:03;;;;;;;;;;;;;;;18.87;100.00;100153.50;5054811;28;19932;-64
2021/06/17 01:35:35;;;;;;;;;;;19.20;99.90;;;18.79;100.00;100150.97;5054084;28;19925;-64
2021/06/17 01:38:05;;;;;;;;;;;19.20;99.90;;;18.72;100.00;100156.31;5055195;28;19925;-64
2021/06/17 01:40:33;;;;;;;;;;;19.10;99.90;;;18.75;100.00;100150.13;5054655;28;19925;-63
2021/06/17 01:43:03;;;;;;;;;;;19.10;99.90;;;18.75;100.00;100153.66;5037081;28;20377;-63
2021/06/17 01:45:32;;;;;;;;;;;19.10;99.90;;;18.77;100.00;100148.59;5053907;28;19929;-63
2021/06/17 01:48:00;;;;;;;;;;;19.10;99.90;;;18.77;100.00;100156.00;5054849;28;19928;-65
2021/06/17 01:50:28;;;;;;;;;;;;;;;18.72;100.00;100157.09;5054758;28;19924;-64
2021/06/17 01:52:56;;;;;;;;;;;19.10;99.90;;;18.68;100.00;100155.44;5054521;28;19924;-64
2021/06/17 01:55:24;;;;;;;;;;;19.00;99.90;;;18.65;100.00;100153.41;5053723;28;19932;-63
2021/06/17 01:57:52;;;;;;;;;;;19.00;99.90;;;18.63;100.00;100153.00;5054574;28;19933;-64
2021/06/17 02:00:22;;;;;;;;;;;19.00;99.90;;;18.58;100.00;100150.50;5054418;28;19925;-63
2021/06/17 02:02:50;;;;;;;;;;;18.90;99.90;;;18.52;100.00;100153.56;5054410;28;20544;-63
2021/06/17 02:05:18;;;;;;;;;;;;;;;18.55;100.00;100141.88;5053745;28;20282;-65
2021/06/17 02:07:46;;;;;;;;;;;18.90;99.90;;;18.55;100.00;100144.63;5053205;28;19928;-65
2021/06/17 02:10:14;;;;;;;;;;;18.90;99.90;;;18.55;100.00;100135.59;5052989;28;19947;-65
2021/06/17 02:12:42;;;;;;;;;;;18.90;99.90;;;18.53;100.00;100138.72;5054123;28;19929;-65
2021/06/17 02:15:11;;;;;;;;;;;18.90;99.90;;;18.52;100.00;100134.38;5053318;28;19925;-65
2021/06/17 02:17:44;;;;;;;;;;;18.80;99.90;;;18.51;100.00;100132.78;5054258;28;19929;-65
2021/06/17 02:20:14;;;;;;;;;;;18.90;99.90;;;18.45;100.00;100136.94;5054054;28;19925;-65
2021/06/17 02:22:43;;;;;;;;;;;18.80;99.90;;;18.44;100.00;100132.63;5053942;28;19929;-65
2021/06/17 02:25:12;;;;;;;;;;;18.80;99.90;;;18.50;100.00;100138.63;5052960;28;19920;-63
2021/06/17 02:27:40;;;;;;;;;;;;;;;18.47;100.00;100137.38;5054129;28;19933;-63
2021/06/17 02:30:10;;;;;;;;;;;18.80;99.90;;;18.45;100.00;100145.16;5053829;28;20321;-64
2021/06/17 02:32:43;;;;;;;;;;;18.80;99.90;;;18.45;100.00;100139.66;5053800;28;19936;-64
2021/06/17 02:35:11;;;;;;;;;;;18.80;99.90;;;18.48;100.00;100141.69;5052802;28;19974;-64
2021/06/17 02:37:40;;;;;;;;;;;18.80;99.90;;;18.45;100.00;100142.41;5053050;28;19931;-64
2021/06/17 02:40:09;;;;;;;;;;;;;;;18.48;100.00;100138.94;5053580;28;19929;-63
2021/06/17 02:42:37;;;;;;;;;;;18.80;99.90;;;18.49;100.00;100131.56;5053763;28;19962;-63
2021/06/17 02:45:05;;;;;;;;;;;;;;;18.46;100.00;100135.00;5052812;28;20328;-65
2021/06/17 02:47:33;;;;;;;;;;;;;;;18.48;100.00;100138.94;5053592;28;20374;-65
2021/06/17 02:50:03;;;;;;;;;;;;;;;18.50;100.00;100141.38;5053461;28;19928;-63
2021/06/17 02:52:31;;;;;;;;;;;;;;;18.50;100.00;100133.97;5053538;28;19929;-64
2021/06/17 02:54:59;;;;;;;;;;;;;;;18.50;100.00;100138.63;5052263;28;20320;-63
2021/06/17 02:57:33;;;;;;;;;;;18.90;99.90;;;18.50;100.00;100133.97;5053535;28;19929;-64
2021/06/17 03:00:08;;;;;;;;;;;18.80;99.90;;;18.50;100.00;100136.69;5053452;28;19931;-64
2021/06/17 03:02:54;;;;;;;;;;;18.80;99.90;;;18.52;100.00;100139.84;5053330;28;19925;-64
2021/06/17 03:05:25;;;;;;;;;;;18.80;99.90;;;18.52;100.00;100137.13;5051334;28;19933;-65
2021/06/17 03:07:59;;;;;;;;;;;18.90;99.90;;;18.52;100.00;100139.06;5052250;28;19928;-63
2021/06/17 03:10:29;;;;;;;;;;;18.90;99.90;;;18.52;100.00;100134.38;5053082;28;20011;-63
2021/06/17 03:12:58;;;;;;;;;;;18.90;99.90;;;18.54;100.00;100139.50;5052875;28;19983;-64
2021/06/17 03:15:27;;;;;;;;;;;18.90;99.90;;;18.55;100.00;100136.41;5052209;28;19971;-64
2021/06/17 03:17:56;;;;;;;;;;;18.90;99.90;;;18.62;100.00;100134.97;5053085;28;19929;-64
2021/06/17 03:20:26;;;;;;;;;;;18.90;99.90;;;18.64;100.00;100135.38;5051667;28;19929;-64
2021/06/17 03:22:56;;;;;;;;;;;19.00;99.90;;;18.66;100.00;100141.31;5052785;28;19978;-63
2021/06/17 03:25:26;;;;;;;;;;;19.00;99.90;;;18.67;100.00;100137.41;5051731;28;19929;-63
2021/06/17 03:27:56;;;;;;;;;;;19.00;99.90;;;18.67;100.00;100137.41;5052997;28;20359;-63
2021/06/17 03:30:25;;;;;;;;;;;19.00;99.90;;;18.67;100.00;100140.16;5052729;28;19924;-63
2021/06/17 03:32:54;;;;;;;;;;;19.00;99.90;;;18.68;100.00;100150.75;5052656;28;19940;-63
2021/06/17 03:35:23;;;;;;;;;;;19.00;99.90;;;18.66;100.00;100141.31;5051685;28;19925;-63
2021/06/17 03:37:53;;;;;;;;;;;19.00;99.90;;;18.63;100.00;100142.84;5052607;28;19925;-65
2021/06/17 03:40:21;;;;;;;;;;;19.00;99.90;;;18.62;100.00;100152.19;5052573;28;19992;-64
2021/06/17 03:42:51;;;;;;;;;;;19.00;99.90;;;18.61;100.00;100149.81;5051450;28;20304;-66
2021/06/17 03:45:20;;;;;;;;;;;18.90;99.90;;;18.54;100.00;100140.28;5051681;28;20366;-66
2021/06/17 03:47:50;;;;;;;;;;;18.90;99.90;;;18.49;100.00;100140.56;5052692;28;20421;-65
2021/06/17 03:50:21;;;;;;;;;;;18.90;99.90;;;18.44;100.00;100145.50;5051452;28;19931;-63
2021/06/17 03:52:51;;;;;;;;;;;18.80;99.90;;;18.39;100.00;100148.53;5052553;28;19982;-63
2021/06/17 03:55:21;;;;;;;;;;;18.80;99.90;;;18.41;100.00;100148.97;5051299;28;19921;-64
2021/06/17 03:57:50;;;;;;;;;;;18.80;99.90;;;18.43;100.00;100144.72;5052635;28;19939;-65
2021/06/17 04:00:19;;;;;;;;;;;18.80;99.90;;;18.43;100.00;100139.25;5051086;28;20366;-65
2021/06/17 04:02:47;;;;;;;;;;;18.80;99.90;;;18.32;100.00;100146.44;5052317;28;19929;-65
2021/06/17 04:05:15;;;;;;;;;;;18.80;99.90;;;18.34;100.00;100144.13;5050143;28;20282;-65
2021/06/17 04:07:44;;;;;;;;;;;18.80;99.90;;;18.32;100.00;100151.91;5052656;28;19929;-63
2021/06/17 04:10:12;;;;;;;;;;;18.70;99.90;;;18.29;100.00;100144.41;5052138;28;19931;-63
2021/06/17 04:12:42;;;;;;;;;;;;;;;18.29;100.00;100157.31;5052304;28;19924;-63
2021/06/17 04:15:12;;;;;;;;;;;18.70;99.90;;;18.27;100.00;100149.44;5051088;28;19932;-64
2021/06/17 04:17:42;;;;;;;;;;;18.70;99.90;;;18.24;100.00;100150.16;5052321;28;19925;-64
2021/06/17 04:20:13;;;;;;;;;;;18.70;99.90;;;18.25;100.00;100150.94;5052137;28;19935;-64
2021/06/17 04:22:46;;;;;;;;;;;18.70;99.90;;;18.25;100.00;100148.22;5052209;28;19924;-65
2021/06/17 04:25:14;;;;;;;;;;;18.70;99.90;;;18.27;100.00;100146.69;5051126;28;19921;-64
2021/06/17 04:27:44;;;;;;;;;;;18.70;99.90;;;18.31;100.00;100147.59;5052219;28;19929;-63
2021/06/17 04:30:12;;;;;;;;;;;18.70;99.90;;;18.34;100.00;100140.59;5052130;28;20007;-64
2021/06/17 04:32:41;;;;;;;;;;;18.70;99.90;;;18.31;100.00;100147.59;5052307;28;19925;-65
2021/06/17 04:35:10;;;;;;;;;;;18.70;99.90;;;18.30;100.00;100140.50;5050996;28;19968;-63
2021/06/17 04:37:38;;;;;;;;;;;18.70;99.90;;;18.25;100.00;100148.22;5050973;28;20446;-64
2021/06/17 04:40:09;;;;;;;;;;;18.60;99.90;;;18.24;100.00;100152.88;5051964;28;19929;-63
2021/06/17 04:42:37;;;;;;;;;;;18.60;99.90;;;18.24;100.00;100155.63;5052061;28;19939;-63
2021/06/17 04:45:07;;;;;;;;;;;18.60;99.90;;;18.25;100.00;100154.47;5050982;28;19932;-63
2021/06/17 04:47:36;;;;;;;;;;;18.60;99.90;;;18.24;100.00;100157.59;5052034;28;19929;-63
2021/06/17 04:50:05;;;;;;;;;;;18.60;99.90;;;18.14;100.00;100149.94;5052129;28;19925;-64
2021/06/17 04:52:36;;;;;;;;;;;18.50;99.90;;;18.17;100.00;100150.00;5052012;28;19932;-64
2021/06/17 04:55:04;;;;;;;;;;;18.50;99.90;;;18.21;100.00;100150.88;5050856;28;19974;-63
2021/06/17 04:57:32;;;;;;;;;;;18.60;99.90;;;18.21;100.00;100148.13;5051830;28;19925;-64
2021/06/17 05:00:00;;;;;;;;;;;18.60;99.90;;;18.19;100.00;100153.16;5051820;28;19936;-63
2021/06/17 05:02:29;;;;;;;;;;;18.60;99.90;;;18.15;100.00;100149.56;5054843;28;19947;-64
2021/06/17 05:04:57;;;;;;;;;;;18.50;99.90;;;18.14;100.00;100153.47;5054355;28;19929;-63
2021/06/17 05:07:50;;;;;;;;;;;18.50;99.90;;;18.13;100.00;100162.81;5055449;28;19932;-63
2021/06/17 05:13:06;;;;;;;;;;;18.50;99.90;;;18.03;100.00;100160.59;5044721;28;20041;-65
2021/06/17 05:15:34;;;;;;;;;;;18.40;99.90;;;18.01;100.00;100154.72;5054301;28;19925;-63
2021/06/17 05:18:05;;;;;;;;;;;18.40;99.90;;;17.99;100.00;100155.03;5054675;28;20221;-64
2021/06/17 05:20:32;;;;;;;;;;;18.40;99.90;;;18.01;100.00;100154.72;5055110;28;20004;-63
2021/06/17 05:23:01;;;;;;;;;;;18.40;99.90;;;18.01;100.00;100157.44;5054118;28;20382;-63
2021/06/17 05:25:28;;;;;;;;;;;18.40;99.90;;;18.05;100.00;100155.59;5053047;28;19971;-63
2021/06/17 05:27:56;;;;;;;;;;;18.40;99.90;;;18.03;100.00;100157.88;5055183;28;19959;-64
2021/06/17 05:30:24;;;;;;;;;;;18.40;99.90;;;18.04;100.00;100159.47;5053652;28;20298;-64
2021/06/17 05:32:52;;;;;;;;;;;18.40;99.90;;;18.02;100.00;100156.31;5055127;28;20579;-64
2021/06/17 05:35:21;;;;;;;;;;;18.40;99.90;;;18.03;100.00;100163.34;5054074;28;19921;-63
2021/06/17 05:37:49;;;;;;;;;;;18.40;99.90;;;18.04;100.00;100159.47;5054919;28;19928;-63
2021/06/17 05:40:17;;;;;;;;;;;18.40;99.90;;;18.14;100.00;100161.66;5053635;28;19929;-63
2021/06/17 05:42:45;;;;;;;;;;;18.50;99.90;;;18.05;100.00;100158.31;5054897;28;19951;-63
2021/06/17 05:45:14;;;;;;;;;;;18.40;99.90;;;18.07;100.00;100158.75;5053873;28;20058;-63
2021/06/17 05:47:42;;;;;;;;;;;18.40;99.90;;;18.11;100.00;100165.13;5054579;28;20364;-63
2021/06/17 05:50:10;;;;;;;;;;;18.50;99.90;;;18.14;100.00;100169.88;5054534;28;19931;-63
2021/06/17 05:52:40;;;;;;;;;;;18.50;99.90;;;18.23;100.00;100158.72;5055046;28;19925;-63
2021/06/17 05:55:09;;;;;;;;;;;18.60;99.90;;;18.19;100.00;100166.06;5053641;28;19929;-65
2021/06/17 05:57:37;;;;;;;;;;;18.50;99.90;;;18.21;100.00;100172.75;5054225;28;20440;-63
2021/06/17 06:00:08;;;;;;;;;;;18.60;99.90;;;18.23;100.00;100169.69;5054305;28;19929;-62
2021/06/17 06:02:36;;;;;;;;;;;18.50;99.90;;;18.27;100.00;100167.81;5053520;28;19979;-65
2021/06/17 06:05:04;;;;;;;;;;;18.60;99.90;;;18.27;100.00;100167.81;5052511;28;20466;-64
2021/06/17 06:07:31;;;;;;;;;;;18.60;99.90;;;18.24;100.00;100171.28;5054315;28;20347;-63
2021/06/17 06:10:03;;;;;;;;;;;18.60;99.90;;;18.25;100.00;100176.38;5054107;28;19925;-64
2021/06/17 06:12:31;;;;;;;;;;;18.60;99.90;;;18.22;100.00;100177.09;5052318;28;20377;-63
2021/06/17 06:14:59;;;;;;;;;;;18.50;99.90;;;18.22;100.00;100171.63;5052283;28;20334;-64
2021/06/17 06:17:27;;;;;;;;;;;18.60;99.90;;;18.29;100.00;100176.47;5054176;28;19935;-65
2021/06/17 06:19:54;;;;;;;;;;;18.60;99.90;;;18.27;100.00;100179.53;5053893;28;20345;-64
2021/06/17 06:22:22;;;;;;;;;;;18.60;99.90;;;18.30;100.00;100176.09;5053088;28;19929;-64
2021/06/17 06:24:50;;;;;;;;;;;18.70;99.90;;;18.30;100.00;100178.81;5053182;28;19932;-63
2021/06/17 06:27:20;;;;;;;;;;;18.60;99.90;;;18.23;100.00;100169.69;5052687;28;19931;-64
2021/06/17 06:29:47;;;;;;;;;;;18.60;99.90;;;18.24;100.00;100191.19;5053714;28;19971;-66
2021/06/17 06:32:15;;;;;;;;;;;18.60;99.90;;;18.24;100.00;100187.69;5054159;28;19929;-64
2021/06/17 06:34:43;;;;;;;;;;;18.60;99.90;;;18.25;100.00;100187.31;5053183;28;19935;-64
2021/06/17 06:37:11;;;;;;;;;;;18.60;99.90;;;18.26;100.00;100191.66;5053488;28;19924;-64
2021/06/17 06:39:39;;;;;;;;;;;18.60;99.90;;;18.28;100.00;100191.28;5053836;28;19975;-63
2021/06/17 06:42:09;;;;;;;;;;;18.60;99.90;;;18.30;100.00;100195.25;5052494;28;20382;-63
2021/06/17 06:44:38;;;;;;;;;;;18.60;99.90;;;18.32;100.00;100197.66;5052067;28;20290;-63
2021/06/17 06:47:05;;;;;;;;;;;18.70;99.90;;;18.30;100.00;100200.72;5053522;28;19929;-63
2021/06/17 06:49:33;;;;;;;;;;;18.60;99.90;;;18.28;100.00;100205.78;5053584;28;19947;-63
2021/06/17 06:52:01;;;;;;;;;;;18.70;99.90;;;18.28;100.00;100197.56;5053600;28;19932;-63
2021/06/17 06:54:29;;;;;;;;;;;18.60;99.90;;;18.28;100.00;100202.22;5051827;28;20393;-63
2021/06/17 06:56:56;;;;;;;;;;;18.60;99.90;;;18.26;100.00;100207.28;5052729;28;20386;-63
2021/06/17 06:59:24;;;;;;;;;;;18.60;99.90;;;18.25;100.00;100209.22;5053366;28;19932;-63
2021/06/17 07:01:53;;;;;;;;;;;18.60;99.90;;;18.23;100.00;100205.25;5052325;28;19935;-65
2021/06/17 07:04:21;;;;;;;;;;;18.60;99.90;;;18.22;100.00;100201.72;5053031;28;19977;-63
2021/06/17 07:06:49;;;;;;;;;;;18.60;99.90;;;18.23;100.00;100199.78;5052505;28;20386;-63
2021/06/17 07:09:17;;;;;;;;;;;18.60;99.90;;;18.27;100.00;100197.94;5053239;28;20035;-64
2021/06/17 07:11:45;;;;;;;;;;;18.60;99.90;;;18.26;100.00;100199.06;5053260;28;19939;-64
2021/06/17 07:14:13;;;;;;;;;;;18.60;99.90;;;18.29;100.00;100193.69;5053124;28;19925;-63
2021/06/17 07:16:40;;;;;;;;;;;18.60;99.90;;;18.28;100.00;100194.81;5051960;28;19929;-64
2021/06/17 07:19:11;;;;;;;;;;;18.70;99.90;;;18.27;100.00;100195.19;5051884;28;19928;-63
2021/06/17 07:21:39;;;;;;;;;;;18.70;99.90;;;18.28;100.00;100200.28;5053074;28;19925;-63
2021/06/17 07:24:07;;;;;;;;;;;18.70;99.90;;;18.30;100.00;100200.72;5052733;28;19935;-64
2021/06/17 07:26:36;;;;;;;;;;;18.60;99.90;;;18.35;100.00;100202.41;5052021;28;20432;-63
2021/06/17 07:29:03;;;;;;;;;;;18.70;99.90;;;18.37;100.00;100200.91;5052814;28;19928;-63
2021/06/17 07:31:32;;;;;;;;;;;18.70;99.90;;;18.36;100.00;100204.00;5052732;28;19924;-65
2021/06/17 07:34:00;;;;;;;;;;;18.70;99.90;;;18.38;100.00;100202.50;5052902;28;19936;-63
2021/06/17 07:36:30;;;;;;;;;;;18.70;99.90;;;18.39;100.00;100204.06;5034246;28;19936;-64
2021/06/17 07:38:58;;;;;;;;;;;18.80;99.90;;;18.43;100.00;100215.09;5052625;28;19925;-64
2021/06/17 07:41:27;;;;;;;;;;;18.80;99.90;;;18.52;100.00;100212.97;5052675;28;19936;-63
2021/06/17 07:43:55;;;;;;;;;;;18.90;99.90;;;18.50;100.00;100209.81;5052629;28;19925;-63
2021/06/17 07:46:23;;;;;;;;;;;;;;;18.46;100.00;100209.69;5051689;28;19932;-63
2021/06/17 07:48:51;;;;;;;;;;;18.80;99.90;;;18.48;100.00;100210.13;5052454;28;19928;-63
2021/06/17 07:51:19;;;;;;;;;;;18.90;99.90;;;18.49;100.00;100210.97;5051380;28;20119;-65
2021/06/17 07:53:48;;;;;;;;;;;18.80;99.90;;;18.53;100.00;100214.59;5052684;28;20349;-63
2021/06/17 07:56:16;;;;;;;;;;;18.90;99.90;;;18.57;100.00;100217.41;5051449;28;20294;-65
2021/06/17 07:58:46;;;;;;;;;;;18.90;99.90;;;18.52;100.00;100216.53;5052324;28;19929;-63
2021/06/17 08:01:13;;;;;;;;;;;18.90;99.90;;;18.57;100.00;100215.47;5052399;28;19929;-63
2021/06/17 08:03:41;;;;;;;;;;;18.90;99.90;;;18.78;100.00;100231.56;5052636;28;19925;-64
2021/06/17 08:06:09;;;;;;;;;;;19.10;99.90;;;18.99;100.00;100226.53;5051407;28;20294;-64
2021/06/17 08:08:37;;;;;;;;;;;19.30;99.90;;;19.07;100.00;100231.78;5051130;28;19947;-64
2021/06/17 08:11:07;;;;;;;;;;;19.40;99.90;;;19.13;100.00;100232.28;5052123;28;19979;-63
2021/06/17 08:13:34;;;;;;;;;;;19.50;99.90;;;19.24;100.00;100227.81;5052362;28;19979;-63
2021/06/17 08:16:03;;;;;;;;;;;19.50;99.90;;;19.27;100.00;100229.81;5051346;28;19929;-63
2021/06/17 08:18:31;;;;;;;;;;;19.60;99.90;;;19.19;100.00;100230.06;5051121;28;19925;-63
2021/06/17 08:21:01;;;;;;;;;;;19.50;99.90;;;19.16;100.00;100228.84;5034554;28;19975;-64
2021/06/17 08:23:29;;;;;;;;;;;19.50;99.90;;;19.14;100.00;100235.84;5051228;28;19925;-62
2021/06/17 08:25:57;;;;;;;;;;;19.50;99.90;;;19.12;100.00;100229.94;5051306;28;19979;-63
2021/06/17 08:28:29;;;;;;;;;;;19.40;99.90;;;19.12;100.00;100236.19;5052223;28;19929;-63
2021/06/17 08:30:57;;;;;;;;;;;19.40;99.90;;;19.15;100.00;100238.19;5052130;28;19929;-63
2021/06/17 08:33:25;;;;;;;;;;;19.50;99.90;;;19.17;100.00;100246.88;5052456;28;19947;-63
2021/06/17 08:35:53;;;;;;;;;;;19.50;99.90;;;19.16;100.00;100241.72;5051317;28;19982;-63
2021/06/17 08:38:21;;;;;;;;;;;19.50;99.90;;;19.24;100.00;100252.47;5056200;28;19925;-63
2021/06/17 08:40:49;;;;;;;;;;;19.60;99.90;;;19.29;100.00;100246.72;5054683;28;20019;-64
2021/06/17 08:43:16;;;;;;;;;;;19.60;99.90;;;19.26;100.00;100246.66;5054886;28;20404;-63
2021/06/17 08:45:46;;;;;;;;;;;19.60;99.90;;;19.23;100.00;100252.84;5054856;28;19928;-63
2021/06/17 08:48:15;;;;;;;;;;;19.60;99.90;;;19.09;100.00;100254.13;5054726;28;20002;-64
2021/06/17 08:50:43;;;;;;;;;;;19.50;99.90;;;19.05;100.00;100258.78;5054307;28;19979;-64
2021/06/17 08:53:10;;;;;;;;;;;19.40;99.90;;;19.07;100.00;100258.41;5055918;28;19978;-63
2021/06/17 08:55:39;;;;;;;;;;;19.50;99.90;;;19.13;100.00;100262.44;5054725;28;20012;-64
2021/06/17 08:58:07;;;;;;;;;;;19.50;99.90;;;19.18;100.00;100267.63;5055822;28;19933;-64
2021/06/17 09:00:39;;;;;;;;;;;19.60;99.90;;;19.28;100.00;100269.78;5054224;28;19925;-66
2021/06/17 09:03:10;;;;;;;;;;;19.60;99.90;;;19.39;100.00;100262.63;5055679;28;19935;-65
2021/06/17 09:05:40;;;;;;;;;;;19.80;99.90;;;19.51;100.00;100278.13;5054415;28;19931;-65
2021/06/17 09:08:09;;;;;;;;;;;19.90;99.90;;;19.54;100.00;100274.66;5055735;28;19971;-65
2021/06/17 09:10:39;;;;;;;;;;;20.00;99.90;;;19.43;100.00;100270.91;5055267;28;19947;-66
2021/06/17 09:13:07;;;;;;;;;;;19.90;99.90;;;19.33;100.00;100274.97;5054530;28;20313;-65
2021/06/17 09:15:41;;;;;;;;;;;19.80;99.90;;;19.25;100.00;100277.94;5053046;28;19975;-65
2021/06/17 09:18:18;;;;;;;;;;;19.70;99.90;;;19.06;100.00;100281.47;5055414;28;19924;-65
2021/06/17 09:20:49;;;;;;;;;;;19.50;99.90;;;18.97;100.00;100291.84;5055069;28;19925;-65
2021/06/17 09:23:34;;;;;;;;;;;19.40;99.90;;;18.87;100.00;100295.97;5054590;28;20290;-65
2021/06/17 09:26:05;;;;;;;;;;;19.30;99.90;;;18.85;100.00;100292.75;5054087;28;19924;-65
2021/06/17 09:28:47;;;;;;;;;;;19.30;99.90;;;18.82;100.00;100298.16;5054236;28;19925;-65
2021/06/17 09:31:16;;;;;;;;;;;19.20;99.90;;;18.86;100.00;100299.03;5053710;28;19936;-65
2021/06/17 09:33:46;;;;;;;;;;;19.30;99.90;;;18.89;100.00;100309.28;5054083;28;19932;-65
2021/06/17 09:36:15;;;;;;;;;;;19.30;99.90;;;18.92;100.00;100308.56;5053875;28;19960;-65
2021/06/17 09:38:47;;;;;;;;;;;19.30;99.90;;;18.92;100.00;100303.88;5054982;28;19931;-65
2021/06/17 09:41:30;;;;;;;;;;;19.30;99.90;;;18.99;100.00;100317.75;5054742;28;20066;-65
2021/06/17 09:43:58;;;;;;;;;;;19.40;99.90;;;19.04;100.00;100308.44;5053893;28;20019;-66
2021/06/17 09:46:26;;;;;;;;;;;19.50;99.90;;;19.05;100.00;100312.78;5053658;28;19928;-65
2021/06/17 09:48:55;;;;;;;;;;;19.50;99.90;;;19.12;100.00;100309.41;5054679;28;19934;-65
2021/06/17 09:51:25;;;;;;;;;;;19.50;99.90;;;19.15;100.00;100312.19;5053410;28;19925;-66
2021/06/17 09:53:54;;;;;;;;;;;19.60;99.90;;;19.11;100.00;100319.56;5053702;28;19929;-65
2021/06/17 09:56:32;;;;;;;;;;;19.50;99.90;;;19.18;100.00;100316.97;5052595;28;20007;-65
2021/06/17 09:59:00;;;;;;;;;;;19.60;99.90;;;19.30;100.00;100322.31;5054635;28;20078;-65
2021/06/17 10:01:34;;;;;;;;;;;19.70;99.90;;;19.56;100.00;100317.00;5053091;28;19929;-65
2021/06/17 10:04:06;;;;;;;;;;;19.90;99.90;;;19.83;100.00;100306.94;5054705;28;20441;-65
2021/06/17 10:06:35;;;;;;;;;;;20.20;99.90;;;20.15;100.00;100308.28;5052292;28;19925;-65
2021/06/17 10:09:06;;;;;;;;;;;20.50;99.90;;;20.22;100.00;100317.81;5054529;28;19925;-63
2021/06/17 10:11:34;;;;;;;;;;;20.60;99.90;;;20.28;100.00;100310.88;5053069;28;19929;-65
2021/06/17 10:14:03;;;;;;;;;;;20.70;99.90;;;20.28;100.00;100310.88;5054305;28;19928;-63
2021/06/17 10:16:32;;;;;;;;;;;20.70;99.90;;;20.30;100.00;100306.63;5035608;28;19925;-66
2021/06/17 10:19:00;;;;;;;;;;;20.70;99.90;;;20.30;100.00;100309.38;5054476;28;19928;-65
2021/06/17 10:21:31;;;;;;;;;;;20.70;99.90;;;20.28;100.00;100322.66;5052809;28;20441;-66
2021/06/17 10:23:59;;;;;;;;;;;20.70;99.90;;;20.32;100.00;100320.78;5054235;28;19931;-65
2021/06/17 10:26:30;;;;;;;;;;;20.80;99.90;;;20.30;100.00;100322.31;5053148;28;19929;-65
2021/06/17 10:28:59;;;;;;;;;;;20.80;99.90;;;20.18;100.00;100323.28;5054381;28;19932;-66
2021/06/17 10:31:52;;;;;;;;;;;20.70;99.90;;;19.99;100.00;100324.09;5053746;28;19991;-65
2021/06/17 10:34:41;;;;;;;;;;;20.50;99.90;;;19.98;100.00;100321.72;5053854;28;19924;-66
2021/06/17 10:37:16;;;;;;;;;;;20.50;99.90;;;19.97;100.00;100329.16;5053582;28;19996;-66
2021/06/17 10:39:45;;;;;;;;;;;20.50;99.90;;;20.15;100.00;100327.50;5053731;28;19925;-65
2021/06/17 10:42:38;;;;;;;;;;;20.60;99.90;;;20.65;100.00;100326.41;5053834;28;19925;-65
2021/06/17 10:45:13;;;;;;;;;;;20.90;99.90;;;20.66;100.00;100327.22;5037824;28;19925;-66
2021/06/17 10:48:04;;;;;;;;;;;21.10;99.90;;;20.56;100.00;100325.88;5053658;28;19925;-66
2021/06/17 10:50:42;;;;;;;;;;;21.10;99.90;;;20.31;100.00;100337.59;5053477;28;19929;-66
2021/06/17 10:53:50;;;;;;;;;;;20.90;99.90;;;20.05;100.00;100339.13;5053735;28;19925;-66
2021/06/17 10:56:21;;;;;;;;;;;20.60;99.90;;;19.88;100.00;100341.53;5052291;28;20281;-65
2021/06/17 10:58:58;;;;;;;;;;;20.40;99.90;;;19.86;100.00;100341.88;5052915;28;19978;-65
2021/06/17 11:01:28;;;;;;;;;;;20.40;99.90;;;19.94;100.00;100348.31;5053354;28;20019;-65
2021/06/17 11:04:04;;;;;;;;;;;20.40;99.90;;;19.96;100.00;100349.53;5053333;28;20043;-66
2021/06/17 11:07:11;;;;;;;;;;;20.50;99.90;;;19.98;100.00;100346.41;5052344;28;20389;-65
2021/06/17 11:09:56;;;;;;;;;;;20.50;99.90;;;19.84;100.00;100346.94;5053179;28;20394;-65
2021/06/17 11:13:02;;;;;;;;;;;20.40;99.90;;;19.59;100.00;100354.69;5053173;28;19933;-65
2021/06/17 11:15:51;;;;;;;;;;;20.20;99.90;;;19.42;100.00;100352.38;5052383;28;19948;-65
2021/06/17 11:18:56;;;;;;;;;;;20.00;99.90;;;19.42;100.00;100355.13;5053083;28;19979;-66
2021/06/17 11:21:45;;;;;;;;;;;19.90;99.90;;;19.46;100.00;100345.00;5053023;28;20435;-65
2021/06/17 11:24:37;;;;;;;;;;;20.00;99.90;;;19.36;100.00;100348.28;5053250;28;19924;-65